Аэропорт: Полярный. Удачный

ICAO: UERP

METAR:
2019/05/25 20:00
UERP 252000Z VRB01MPS CAVOK M01/M06 Q1015 NOSIG RMK QFE717
METAR:
2019/05/25 18:21
TAF UERP 251700Z 2518/2618 VRB01MPS 9999 SCT030